Time;durP1;ratioP1;P1;durP2;ratioP2;P2;SDS_P1;SDS_P2;PMS_P1;PMS_P2;Temp;Humidity;BMP_temperature;BMP_pressure;BME280_temperature;BME280_humidity;BME280_pressure;Samples;Min_cycle;Max_cycle;Signal;HPM_P1;HPM_P2
2023/09/08 00:01:54;;;;;;;16.10;14.48;;;21.10;83.60;;;;;;4946970;28;20055;-74
2023/09/08 00:04:21;;;;;;;15.98;14.27;;;21.10;83.50;;;;;;4943978;28;20074;-73
2023/09/08 00:06:48;;;;;;;15.80;14.23;;;21.00;83.50;;;;;;4943815;28;20031;-73
2023/09/08 00:09:13;;;;;;;16.20;14.60;;;21.00;83.40;;;;;;4948480;28;20026;-74
2023/09/08 00:11:39;;;;;;;16.45;14.70;;;21.00;83.50;;;;;;4956664;28;20675;-73
2023/09/08 00:14:05;;;;;;;16.10;14.40;;;21.00;83.60;;;;;;4943467;28;20038;-73
2023/09/08 00:16:30;;;;;;;18.23;14.63;;;21.00;83.60;;;;;;4943903;28;20699;-73
2023/09/08 00:18:58;;;;;;;16.63;14.63;;;20.90;83.70;;;;;;4944067;28;20048;-73
2023/09/08 00:21:24;;;;;;;15.95;14.32;;;20.90;83.70;;;;;;4946694;28;20038;-72
2023/09/08 00:23:50;;;;;;;17.10;13.93;;;20.90;83.80;;;;;;4938500;28;20109;-74
2023/09/08 00:26:16;;;;;;;15.48;13.85;;;20.90;83.80;;;;;;4943525;28;20019;-73
2023/09/08 00:28:42;;;;;;;17.20;14.43;;;20.80;83.80;;;;;;4943214;28;20059;-73
2023/09/08 00:31:07;;;;;;;16.25;13.75;;;20.70;83.90;;;;;;4940830;28;20035;-75
2023/09/08 00:33:33;;;;;;;15.88;14.27;;;20.70;84.00;;;;;;4942493;28;20035;-74
2023/09/08 00:35:59;;;;;;;16.15;14.52;;;20.70;83.90;;;;;;4946249;28;20443;-74
2023/09/08 00:38:25;;;;;;;15.68;13.73;;;20.70;83.90;;;;;;4949652;28;20362;-73
2023/09/08 00:40:50;;;;;;;18.55;15.65;;;20.70;83.90;;;;;;4944544;28;20355;-73
2023/09/08 00:43:17;;;;;;;16.20;14.48;;;20.60;84.10;;;;;;4946359;28;20074;-74
2023/09/08 00:45:43;;;;;;;15.93;14.23;;;20.60;84.20;;;;;;4945832;28;20019;-75
2023/09/08 00:48:10;;;;;;;15.50;13.90;;;20.60;84.30;;;;;;4947705;28;20038;-74
2023/09/08 00:50:36;;;;;;;15.60;14.07;;;20.60;84.40;;;;;;4947342;28;20035;-74
2023/09/08 00:53:06;;;;;;;18.45;15.65;;;20.60;84.40;;;;;;4946111;28;20036;-75
2023/09/08 00:55:32;;;;;;;16.95;15.20;;;20.50;84.60;;;;;;4943488;28;20102;-74
2023/09/08 00:57:59;;;;;;;16.17;14.50;;;20.50;84.60;;;;;;4943845;28;20035;-74
2023/09/08 01:00:27;;;;;;;16.67;14.88;;;20.50;84.60;;;;;;4948123;28;20042;-74
2023/09/08 01:02:53;;;;;;;16.23;14.52;;;20.50;84.70;;;;;;4941164;28;20069;-74
2023/09/08 01:05:20;;;;;;;17.65;15.90;;;20.50;84.90;;;;;;4931469;28;20126;-73
2023/09/08 01:07:47;;;;;;;17.40;15.38;;;20.50;85.00;;;;;;4942967;28;20027;-73
2023/09/08 01:10:13;;;;;;;18.35;16.23;;;20.50;85.10;;;;;;4945668;28;20055;-73
2023/09/08 01:12:39;;;;;;;17.52;15.75;;;20.50;85.10;;;;;;4937180;28;20027;-74
2023/09/08 01:15:06;;;;;;;19.58;16.15;;;20.40;85.20;;;;;;4942187;28;20066;-73
2023/09/08 01:17:32;;;;;;;19.30;17.33;;;20.40;85.30;;;;;;4947182;28;20027;-73
2023/09/08 01:20:05;;;;;;;18.23;16.15;;;20.40;85.30;;;;;;4966206;28;20038;-73
2023/09/08 01:22:49;;;;;;;19.70;17.65;;;20.40;85.40;;;;;;4960784;28;20039;-74
2023/09/08 01:25:20;;;;;;;18.08;16.27;;;20.30;85.40;;;;;;4959782;28;20041;-73
2023/09/08 01:27:57;;;;;;;19.52;17.23;;;20.30;85.40;;;;;;4956791;28;20055;-74
2023/09/08 01:30:25;;;;;;;17.73;15.70;;;20.30;85.50;;;;;;4959754;28;20038;-74
2023/09/08 01:32:52;;;;;;;17.63;15.80;;;20.20;85.60;;;;;;4955702;28;20038;-73
2023/09/08 01:35:17;;;;;;;19.42;17.42;;;20.20;85.50;;;;;;4962978;28;20027;-74
2023/09/08 01:37:48;;;;;;;19.27;17.45;;;20.10;85.50;;;;;;4958237;28;20401;-74
2023/09/08 01:40:14;;;;;;;20.17;18.15;;;20.10;85.60;;;;;;4961129;28;20473;-73
2023/09/08 01:42:40;;;;;;;19.58;17.15;;;20.10;85.70;;;;;;4962497;28;20045;-73
2023/09/08 01:45:07;;;;;;;18.83;16.92;;;20.00;85.90;;;;;;4961521;28;20027;-76
2023/09/08 01:47:33;;;;;;;19.58;17.52;;;20.10;86.10;;;;;;4964552;28;20046;-73
2023/09/08 01:49:59;;;;;;;17.98;16.27;;;20.00;86.10;;;;;;4957412;28;20058;-73
2023/09/08 01:52:25;;;;;;;17.83;15.90;;;20.00;86.20;;;;;;4958947;28;20098;-73
2023/09/08 01:54:50;;;;;;;18.13;16.23;;;20.00;86.20;;;;;;4960373;28;20042;-74
2023/09/08 01:57:17;;;;;;;18.52;16.63;;;20.00;86.10;;;;;;4955600;28;20039;-74
2023/09/08 01:59:44;;;;;;;18.73;16.05;;;20.00;86.10;;;;;;4968380;28;20087;-73
2023/09/08 02:02:10;;;;;;;16.33;14.63;;;19.90;86.10;;;;;;4960684;28;20110;-73
2023/09/08 02:04:36;;;;;;;17.42;15.65;;;19.90;86.20;;;;;;4958259;28;20067;-75
2023/09/08 02:07:03;;;;;;;16.90;15.25;;;19.90;86.30;;;;;;4953268;28;20761;-75
2023/09/08 02:09:33;;;;;;;16.25;14.57;;;19.90;86.40;;;;;;4943057;28;20035;-73
2023/09/08 02:11:59;;;;;;;17.20;15.50;;;19.90;86.40;;;;;;4938258;28;20043;-73
2023/09/08 02:14:25;;;;;;;17.60;15.80;;;19.80;86.10;;;;;;4946944;28;20677;-73
2023/09/08 02:16:50;;;;;;;17.42;15.77;;;19.80;86.10;;;;;;4950921;28;20049;-74
2023/09/08 02:19:16;;;;;;;17.83;16.02;;;19.80;86.20;;;;;;4948332;28;20494;-74
2023/09/08 02:21:42;;;;;;;19.33;17.52;;;19.80;86.20;;;;;;4950154;28;20126;-73
2023/09/08 02:24:07;;;;;;;18.15;16.23;;;19.80;86.30;;;;;;4944151;28;20046;-74
2023/09/08 02:26:33;;;;;;;16.42;14.82;;;19.70;86.30;;;;;;4955617;28;20468;-73
2023/09/08 02:29:00;;;;;;;19.52;16.77;;;19.80;86.30;;;;;;4941793;28;20112;-73
2023/09/08 02:31:28;;;;;;;20.77;18.73;;;19.70;86.40;;;;;;4946778;28;20039;-74
2023/09/08 02:33:54;;;;;;;18.25;16.35;;;19.70;86.50;;;;;;4944195;28;20139;-74
2023/09/08 02:36:26;;;;;;;20.58;18.52;;;19.70;86.40;;;;;;4945041;28;20106;-74
2023/09/08 02:38:52;;;;;;;22.27;20.17;;;19.70;86.40;;;;;;4939464;28;20046;-74
2023/09/08 02:41:18;;;;;;;21.48;19.40;;;19.60;86.40;;;;;;4944662;28;20034;-75
2023/09/08 02:43:44;;;;;;;19.40;17.55;;;19.60;86.40;;;;;;4941772;28;20079;-73
2023/09/08 02:46:09;;;;;;;21.10;19.15;;;19.60;86.60;;;;;;4940854;28;20671;-75
2023/09/08 02:48:35;;;;;;;19.70;17.83;;;19.60;86.70;;;;;;4939947;28;20097;-74
2023/09/08 02:51:01;;;;;;;18.30;16.48;;;19.50;86.80;;;;;;4953560;28;20035;-73
2023/09/08 02:53:28;;;;;;;20.38;18.17;;;19.60;86.80;;;;;;4955880;28;20054;-73
2023/09/08 02:55:55;;;;;;;19.17;17.13;;;19.50;86.70;;;;;;4952764;28;20047;-73
2023/09/08 02:58:20;;;;;;;18.00;16.20;;;19.50;86.70;;;;;;4939788;28;20105;-73
2023/09/08 03:00:46;;;;;;;18.48;16.58;;;19.50;86.80;;;;;;4946406;28;20023;-73
2023/09/08 03:03:12;;;;;;;17.80;15.90;;;19.50;86.70;;;;;;4955211;28;20035;-74
2023/09/08 03:05:37;;;;;;;19.15;17.23;;;19.40;86.50;;;;;;4943197;28;20480;-74
2023/09/08 03:08:04;;;;;;;19.40;17.38;;;19.50;86.40;;;;;;4943265;28;20083;-75
2023/09/08 03:10:33;;;;;;;19.42;16.08;;;19.40;86.30;;;;;;4944901;28;20392;-72
2023/09/08 03:13:00;;;;;;;17.50;15.80;;;19.40;86.50;;;;;;4957704;28;20045;-75
2023/09/08 03:15:28;;;;;;;18.55;16.55;;;19.40;86.70;;;;;;4965513;28;20500;-74
2023/09/08 03:17:54;;;;;;;20.05;17.48;;;19.30;86.80;;;;;;4952090;28;20078;-72
2023/09/08 03:20:20;;;;;;;17.85;15.95;;;19.30;86.70;;;;;;4949824;28;20061;-73
2023/09/08 03:22:46;;;;;;;17.15;15.40;;;19.30;86.80;;;;;;4944058;28;20062;-72
2023/09/08 03:25:14;;;;;;;17.98;16.02;;;19.30;86.80;;;;;;4938682;28;20141;-73
2023/09/08 03:27:39;;;;;;;17.17;15.38;;;19.30;86.80;;;;;;4938546;28;20100;-74
2023/09/08 03:30:06;;;;;;;17.45;15.65;;;19.20;86.70;;;;;;4940540;28;20031;-74
2023/09/08 03:32:32;;;;;;;18.38;16.30;;;19.20;86.80;;;;;;4946796;28;20122;-72
2023/09/08 03:34:57;;;;;;;19.85;16.25;;;19.20;86.70;;;;;;4988700;28;20416;-72
2023/09/08 03:37:26;;;;;;;17.48;15.70;;;19.10;86.50;;;;;;4991240;28;20106;-74
2023/09/08 03:39:52;;;;;;;19.42;16.70;;;19.10;86.70;;;;;;5043300;28;20020;-74
2023/09/08 03:42:18;;;;;;;16.88;15.18;;;19.10;86.80;;;;;;5009445;28;20668;-73
2023/09/08 03:44:43;;;;;;;17.27;15.38;;;19.10;86.80;;;;;;4940848;28;20058;-73
2023/09/08 03:47:09;;;;;;;17.10;15.30;;;19.10;86.90;;;;;;4940795;28;20043;-74
2023/09/08 03:49:35;;;;;;;17.75;15.07;;;19.10;87.00;;;;;;4943745;28;20023;-73
2023/09/08 03:52:00;;;;;;;19.85;16.08;;;19.10;86.90;;;;;;4947211;28;20069;-74
2023/09/08 03:54:26;;;;;;;17.83;15.75;;;19.00;87.00;;;;;;4962780;28;20034;-74
2023/09/08 03:56:52;;;;;;;18.40;16.42;;;19.00;86.90;;;;;;4960460;28;20046;-73
2023/09/08 03:59:18;;;;;;;17.95;15.30;;;19.00;86.70;;;;;;4940584;28;20031;-74
2023/09/08 04:01:43;;;;;;;17.70;15.77;;;19.00;86.80;;;;;;4942913;28;20041;-73
2023/09/08 04:04:09;;;;;;;18.70;16.77;;;19.00;86.80;;;;;;4942745;28;20440;-74
2023/09/08 04:06:35;;;;;;;17.52;15.73;;;18.90;86.90;;;;;;4943353;28;20106;-73
2023/09/08 04:09:00;;;;;;;17.65;15.13;;;18.90;86.90;;;;;;4942149;28;20449;-73
2023/09/08 04:11:26;;;;;;;19.15;16.67;;;18.90;87.00;;;;;;4940894;28;20027;-73
2023/09/08 04:13:52;;;;;;;17.98;15.85;;;18.80;87.00;;;;;;4942500;28;20085;-73
2023/09/08 04:16:18;;;;;;;17.38;15.30;;;18.80;87.00;;;;;;4941125;28;20053;-73
2023/09/08 04:18:44;;;;;;;16.50;14.90;;;18.70;87.10;;;;;;4936634;28;20047;-72
2023/09/08 04:21:10;;;;;;;17.67;15.88;;;18.70;87.30;;;;;;4941428;28;20149;-74
2023/09/08 04:23:36;;;;;;;19.10;15.25;;;18.80;87.50;;;;;;4937368;28;20470;-74
2023/09/08 04:26:01;;;;;;;16.58;14.85;;;18.70;87.60;;;;;;4941971;28;20487;-73
2023/09/08 04:28:27;;;;;;;17.60;15.68;;;18.60;87.70;;;;;;4941495;28;20059;-72
2023/09/08 04:30:53;;;;;;;17.58;15.77;;;18.60;87.80;;;;;;4943223;28;20031;-73
2023/09/08 04:33:19;;;;;;;17.52;15.65;;;18.60;87.90;;;;;;4942015;28;20043;-73
2023/09/08 04:35:44;;;;;;;17.95;15.93;;;18.60;87.80;;;;;;4942780;28;20098;-75
2023/09/08 04:38:11;;;;;;;18.40;16.13;;;18.70;87.80;;;;;;4937573;28;20067;-73
2023/09/08 04:40:39;;;;;;;18.52;15.60;;;18.60;87.90;;;;;;4948705;28;20046;-75
2023/09/08 04:43:05;;;;;;;20.25;15.70;;;18.60;87.80;;;;;;4960317;28;20044;-75
2023/09/08 04:45:31;;;;;;;16.58;14.80;;;18.60;87.80;;;;;;4939935;28;20453;-73
2023/09/08 04:47:56;;;;;;;20.23;16.88;;;18.60;87.90;;;;;;4941207;28;20031;-74
2023/09/08 04:50:22;;;;;;;17.95;15.38;;;18.60;88.10;;;;;;4942412;28;20568;-75
2023/09/08 04:52:48;;;;;;;16.85;15.07;;;18.60;88.10;;;;;;4956580;28;20103;-74
2023/09/08 04:55:13;;;;;;;16.17;14.48;;;18.60;88.20;;;;;;4958086;28;20556;-72
2023/09/08 04:57:39;;;;;;;16.80;15.10;;;18.60;88.20;;;;;;4959068;28;20027;-75
2023/09/08 05:00:06;;;;;;;18.05;15.70;;;18.60;88.10;;;;;;4954696;28;20038;-73
2023/09/08 05:02:32;;;;;;;16.48;14.70;;;18.60;88.10;;;;;;4965852;28;20837;-74
2023/09/08 05:04:57;;;;;;;16.75;15.10;;;18.60;88.00;;;;;;4961294;28;20035;-74
2023/09/08 05:07:23;;;;;;;19.63;14.40;;;18.60;87.70;;;;;;4958071;28;20119;-73
2023/09/08 05:09:49;;;;;;;16.52;14.82;;;18.60;87.50;;;;;;4956915;28;20042;-74
2023/09/08 05:12:15;;;;;;;18.77;15.35;;;18.60;87.50;;;;;;4958680;28;20027;-73
2023/09/08 05:14:41;;;;;;;18.27;15.70;;;18.60;87.40;;;;;;4959734;28;20027;-73
2023/09/08 05:17:06;;;;;;;17.35;14.55;;;18.60;87.40;;;;;;4964716;28;20034;-74
2023/09/08 05:19:32;;;;;;;18.35;15.98;;;18.60;87.50;;;;;;4960442;28;20107;-73
2023/09/08 05:21:58;;;;;;;17.10;15.30;;;18.50;87.50;;;;;;4958693;28;20026;-73
2023/09/08 05:24:25;;;;;;;21.60;19.30;;;18.60;87.60;;;;;;4966046;28;20034;-72
2023/09/08 05:26:51;;;;;;;20.60;18.50;;;18.60;87.70;;;;;;4963537;28;20051;-74
2023/09/08 05:29:17;;;;;;;20.52;18.38;;;18.60;87.70;;;;;;4963160;28;20031;-73
2023/09/08 05:31:43;;;;;;;22.85;20.02;;;18.60;87.60;;;;;;4974337;28;20455;-73
2023/09/08 05:34:08;;;;;;;23.15;19.42;;;18.70;87.60;;;;;;4958817;28;20022;-74
2023/09/08 05:36:37;;;;;;;22.92;20.45;;;18.70;87.60;;;;;;4957715;28;20033;-74
2023/09/08 05:39:04;;;;;;;23.63;20.42;;;18.80;87.70;;;;;;4958939;28;20084;-75
2023/09/08 05:41:30;;;;;;;22.45;20.00;;;18.80;87.60;;;;;;4949891;28;20114;-73
2023/09/08 05:43:55;;;;;;;21.30;19.13;;;18.90;87.30;;;;;;4957390;28;20049;-74
2023/09/08 05:46:21;;;;;;;20.38;18.10;;;18.80;87.30;;;;;;4961494;28;20034;-74
2023/09/08 05:48:47;;;;;;;22.40;19.98;;;18.80;87.30;;;;;;4960301;28;20485;-74
2023/09/08 05:51:14;;;;;;;26.73;21.10;;;18.90;87.40;;;;;;4959569;28;20034;-74
2023/09/08 05:53:40;;;;;;;24.58;21.35;;;18.90;87.50;;;;;;4958752;28;20058;-73
2023/09/08 05:56:06;;;;;;;21.92;19.63;;;18.90;87.60;;;;;;4960668;28;20642;-73
2023/09/08 05:58:33;;;;;;;20.45;18.35;;;18.90;87.70;;;;;;4958433;28;20034;-73
2023/09/08 06:01:03;;;;;;;20.17;17.65;;;19.00;87.70;;;;;;4963057;28;20558;-73
2023/09/08 06:03:29;;;;;;;22.73;19.55;;;19.10;87.70;;;;;;4957184;28;20023;-74
2023/09/08 06:05:56;;;;;;;20.55;18.38;;;19.10;87.70;;;;;;4959160;28;20063;-73
2023/09/08 06:08:22;;;;;;;21.35;18.73;;;19.10;87.60;;;;;;4962033;28;20108;-73
2023/09/08 06:10:47;;;;;;;20.00;17.90;;;19.20;87.60;;;;;;4960733;28;20015;-73
2023/09/08 06:13:13;;;;;;;20.85;18.63;;;19.30;87.50;;;;;;4958702;28;20031;-73
2023/09/08 06:15:39;;;;;;;22.60;19.80;;;19.40;87.40;;;;;;4958770;28;20027;-72
2023/09/08 06:18:05;;;;;;;23.90;18.60;;;19.50;87.30;;;;;;4964662;28;20084;-72
2023/09/08 06:20:30;;;;;;;26.30;19.52;;;19.50;87.20;;;;;;4959646;28;20568;-73
2023/09/08 06:22:56;;;;;;;20.08;18.08;;;19.60;87.20;;;;;;4967547;28;20117;-73
2023/09/08 06:25:22;;;;;;;21.38;19.13;;;19.60;87.20;;;;;;4957623;28;20497;-73
2023/09/08 06:27:47;;;;;;;19.90;17.88;;;19.70;87.20;;;;;;4959030;28;20120;-73
2023/09/08 06:30:15;;;;;;;19.85;17.50;;;19.80;87.20;;;;;;4960314;28;20370;-74
2023/09/08 06:32:41;;;;;;;19.77;17.42;;;19.90;87.10;;;;;;4959987;28;20089;-74
2023/09/08 06:35:07;;;;;;;23.10;19.98;;;20.00;87.10;;;;;;4959625;28;20124;-75
2023/09/08 06:37:39;;;;;;;20.85;18.40;;;20.10;87.00;;;;;;4962369;28;20031;-74
2023/09/08 06:40:05;;;;;;;26.27;20.15;;;20.10;86.90;;;;;;4953342;28;20164;-74
2023/09/08 06:42:32;;;;;;;20.20;17.92;;;20.20;86.90;;;;;;4962821;28;20121;-74
2023/09/08 06:44:59;;;;;;;21.15;18.63;;;20.30;86.90;;;;;;4959475;28;20039;-75
2023/09/08 06:47:25;;;;;;;21.58;19.30;;;20.40;86.90;;;;;;4961698;28;20133;-74
2023/09/08 06:49:50;;;;;;;26.52;19.70;;;20.60;86.90;;;;;;4962303;28;20125;-73
2023/09/08 06:52:18;;;;;;;22.38;16.85;;;20.60;86.80;;;;;;4964531;28;20037;-74
2023/09/08 06:54:45;;;;;;;21.02;18.77;;;20.80;86.60;;;;;;4958297;28;20054;-73
2023/09/08 06:57:12;;;;;;;23.08;17.40;;;20.90;86.40;;;;;;4954879;28;20382;-75
2023/09/08 06:59:38;;;;;;;22.13;18.50;;;21.10;86.00;;;;;;4956546;28;20019;-75
2023/09/08 07:02:04;;;;;;;21.83;17.80;;;21.20;85.70;;;;;;4959747;28;20039;-75
2023/09/08 07:04:30;;;;;;;22.58;17.75;;;21.50;85.20;;;;;;4959019;28;20113;-74
2023/09/08 07:06:56;;;;;;;18.48;15.65;;;21.60;85.00;;;;;;4964004;28;20405;-73
2023/09/08 07:09:21;;;;;;;24.40;17.58;;;21.80;84.50;;;;;;4955730;28;20081;-73
2023/09/08 07:11:47;;;;;;;17.33;15.23;;;22.00;83.70;;;;;;4953105;28;20575;-74
2023/09/08 07:14:13;;;;;;;21.23;16.20;;;22.10;83.90;;;;;;4963321;28;20729;-73
2023/09/08 07:16:38;;;;;;;22.55;16.45;;;22.20;83.20;;;;;;4958142;28;20446;-72
2023/09/08 07:19:05;;;;;;;17.58;15.25;;;22.40;82.80;;;;;;4958661;28;20068;-73
2023/09/08 07:21:31;;;;;;;22.08;16.45;;;22.60;82.60;;;;;;4958264;28;20481;-73
2023/09/08 07:23:58;;;;;;;18.52;15.07;;;22.60;82.10;;;;;;4954541;28;20044;-74
2023/09/08 07:26:23;;;;;;;19.70;15.52;;;22.80;81.60;;;;;;4955670;28;20027;-73
2023/09/08 07:28:49;;;;;;;20.60;14.70;;;23.00;81.30;;;;;;4956441;28;20067;-72
2023/09/08 07:31:15;;;;;;;18.90;14.48;;;23.10;80.40;;;;;;4954678;28;20098;-74
2023/09/08 07:33:40;;;;;;;19.88;14.88;;;23.30;80.20;;;;;;4958278;28;20908;-74
2023/09/08 07:36:08;;;;;;;18.38;15.50;;;23.50;79.50;;;;;;4957738;28;20081;-74
2023/09/08 07:38:34;;;;;;;15.65;13.52;;;23.60;78.90;;;;;;4965624;28;20038;-75
2023/09/08 07:41:01;;;;;;;23.38;14.80;;;23.60;79.10;;;;;;4960488;28;20030;-74
2023/09/08 07:43:27;;;;;;;16.98;14.43;;;23.90;78.30;;;;;;4962453;28;20039;-75
2023/09/08 07:45:53;;;;;;;15.45;12.75;;;24.00;78.20;;;;;;4957923;28;20110;-74
2023/09/08 07:48:19;;;;;;;16.05;13.10;;;24.20;77.40;;;;;;4960017;28;20572;-76
2023/09/08 07:50:44;;;;;;;24.35;14.15;;;24.30;77.20;;;;;;4963071;28;20031;-75
2023/09/08 07:53:10;;;;;;;16.65;13.60;;;24.50;76.70;;;;;;4976789;28;20057;-74
2023/09/08 07:55:36;;;;;;;18.92;13.32;;;24.60;76.40;;;;;;4959352;28;20026;-74
2023/09/08 07:58:03;;;;;;;16.63;13.48;;;24.70;75.50;;;;;;4977388;28;20137;-73
2023/09/08 08:00:29;;;;;;;15.93;11.52;;;24.80;76.30;;;;;;4962086;28;20058;-73
2023/09/08 08:02:57;;;;;;;14.93;12.88;;;25.10;75.60;;;;;;4958734;28;20126;-74
2023/09/08 08:05:23;;;;;;;15.98;11.90;;;25.20;74.40;;;;;;4961453;28;20035;-75
2023/09/08 08:07:49;;;;;;;14.98;12.38;;;25.40;74.40;;;;;;4958456;28;20134;-74
2023/09/08 08:10:15;;;;;;;17.65;12.50;;;25.60;73.40;;;;;;4962770;28;20027;-75
2023/09/08 08:12:42;;;;;;;14.75;11.90;;;25.60;73.60;;;;;;4962192;28;20039;-73
2023/09/08 08:15:10;;;;;;;16.27;12.07;;;25.60;73.10;;;;;;4961221;28;20039;-74
2023/09/08 08:17:36;;;;;;;14.25;11.52;;;25.80;72.90;;;;;;4958824;28;20041;-77
2023/09/08 08:20:17;;;;;;;14.02;11.77;;;25.90;72.70;;;;;;4957682;28;20102;-75
2023/09/08 08:22:46;;;;;;;18.27;12.20;;;26.10;72.20;;;;;;4955858;28;20035;-75
2023/09/08 08:25:15;;;;;;;16.52;11.43;;;26.20;71.50;;;;;;4960699;28;20066;-74
2023/09/08 08:27:41;;;;;;;16.45;11.70;;;26.20;71.40;;;;;;4948494;28;20504;-75
2023/09/08 08:30:07;;;;;;;14.55;11.43;;;26.30;71.40;;;;;;4959182;28;20560;-75
2023/09/08 08:32:34;;;;;;;16.55;12.13;;;26.50;70.60;;;;;;4963122;28;20035;-74
2023/09/08 08:34:59;;;;;;;14.85;10.90;;;26.60;69.70;;;;;;4961534;28;20035;-77
2023/09/08 08:37:25;;;;;;;16.30;12.10;;;26.80;70.70;;;;;;4953700;28;20029;-77
2023/09/08 08:39:51;;;;;;;16.80;10.65;;;27.00;69.50;;;;;;4962192;28;20655;-73
2023/09/08 08:42:16;;;;;;;19.50;11.43;;;27.00;69.90;;;;;;4952805;28;20524;-75
2023/09/08 08:44:43;;;;;;;16.27;12.27;;;27.10;69.40;;;;;;4951290;28;20118;-74
2023/09/08 08:47:10;;;;;;;17.80;12.48;;;27.30;68.80;;;;;;4947964;28;20059;-74
2023/09/08 08:49:37;;;;;;;16.95;12.90;;;27.50;68.30;;;;;;4938452;28;20035;-74
2023/09/08 08:52:07;;;;;;;14.23;11.88;;;27.60;67.60;;;;;;4939796;28;20031;-73
2023/09/08 08:54:39;;;;;;;13.27;11.18;;;27.60;68.10;;;;;;4939088;28;20106;-73
2023/09/08 08:57:06;;;;;;;15.90;11.77;;;27.60;68.00;;;;;;4935356;28;20517;-83
2023/09/08 08:59:32;;;;;;;19.08;12.73;;;27.80;67.30;;;;;;4939166;28;20042;-82
2023/09/08 09:01:59;;;;;;;14.23;12.13;;;27.70;67.60;;;;;;4943923;28;20039;-81
2023/09/08 09:04:25;;;;;;;15.77;12.90;;;27.70;67.60;;;;;;4958715;28;20041;-81
2023/09/08 09:06:53;;;;;;;15.15;12.60;;;27.60;67.90;;;;;;4970347;28;20039;-83
2023/09/08 09:09:20;;;;;;;16.95;12.15;;;27.40;68.50;;;;;;4940264;28;20067;-81
2023/09/08 09:11:46;;;;;;;16.08;13.10;;;27.60;68.80;;;;;;4941581;28;20050;-75
2023/09/08 09:14:12;;;;;;;14.98;11.80;;;27.80;67.00;;;;;;4957684;28;20057;-73
2023/09/08 09:16:42;;;;;;;19.17;13.50;;;28.10;67.20;;;;;;4959579;28;20385;-75
2023/09/08 09:19:07;;;;;;;17.27;12.35;;;28.10;66.70;;;;;;4962039;28;20050;-74
2023/09/08 09:21:43;;;;;;;15.13;12.60;;;28.20;66.00;;;;;;4976116;28;20102;-75
2023/09/08 09:24:15;;;;;;;14.73;12.63;;;28.20;65.90;;;;;;4952256;28;20088;-75
2023/09/08 09:26:40;;;;;;;16.05;13.07;;;28.40;64.30;;;;;;4961075;28;20031;-73
2023/09/08 09:29:13;;;;;;;15.45;11.63;;;28.40;64.70;;;;;;4959498;28;20061;-76
2023/09/08 09:31:55;;;;;;;16.45;12.45;;;28.60;64.90;;;;;;4958532;28;20027;-76
2023/09/08 09:34:22;;;;;;;14.63;11.43;;;28.60;65.50;;;;;;4958120;28;20030;-77
2023/09/08 09:36:49;;;;;;;14.27;12.25;;;28.80;65.10;;;;;;4966037;28;20736;-75
2023/09/08 09:39:20;;;;;;;19.17;12.13;;;28.60;63.90;;;;;;4959860;28;20035;-74
2023/09/08 09:41:48;;;;;;;20.27;13.75;;;28.80;65.50;;;;;;4956999;28;20035;-76
2023/09/08 09:44:15;;;;;;;19.10;12.15;;;28.80;65.10;;;;;;5054617;28;20042;-76
2023/09/08 09:46:45;;;;;;;18.80;12.68;;;29.00;64.10;;;;;;4954349;28;20532;-74
2023/09/08 09:49:19;;;;;;;18.45;12.65;;;29.00;64.90;;;;;;4958684;28;20027;-74
2023/09/08 09:51:47;;;;;;;17.92;12.25;;;29.00;65.20;;;;;;4956845;28;20026;-75
2023/09/08 09:54:13;;;;;;;19.73;14.40;;;29.30;63.80;;;;;;4960303;28;20042;-74
2023/09/08 09:56:40;;;;;;;16.25;13.35;;;29.50;63.60;;;;;;4954981;28;20507;-74
2023/09/08 09:59:10;;;;;;;16.85;13.38;;;29.50;63.50;;;;;;4963815;28;20106;-75
2023/09/08 10:01:37;;;;;;;19.45;13.30;;;29.60;63.30;;;;;;4946021;28;20027;-74
2023/09/08 10:04:03;;;;;;;15.77;12.82;;;29.60;63.50;;;;;;4969510;28;20581;-74
2023/09/08 10:06:33;;;;;;;17.27;11.93;;;29.40;62.30;;;;;;4965577;28;20057;-76
2023/09/08 10:09:04;;;;;;;16.08;12.90;;;29.50;62.90;;;;;;4964257;28;20047;-73
2023/09/08 10:11:37;;;;;;;14.98;13.23;;;29.50;62.40;;;;;;4957712;28;20030;-73
2023/09/08 10:14:04;;;;;;;20.88;13.73;;;29.60;63.40;;;;;;4954915;28;20054;-73
2023/09/08 10:16:33;;;;;;;22.85;14.60;;;29.60;61.60;;;;;;4949647;28;20676;-75
2023/09/08 10:19:00;;;;;;;21.85;14.90;;;29.60;62.60;;;;;;4959252;28;20054;-75
2023/09/08 10:21:28;;;;;;;21.10;14.98;;;29.50;62.60;;;;;;4980818;28;20045;-73
2023/09/08 10:24:09;;;;;;;19.23;14.82;;;29.70;62.20;;;;;;4957565;28;20055;-75
2023/09/08 10:26:36;;;;;;;18.02;14.75;;;29.70;62.60;;;;;;4981729;28;20065;-76
2023/09/08 10:29:02;;;;;;;17.58;13.45;;;29.60;62.80;;;;;;4978975;28;20612;-77
2023/09/08 10:31:29;;;;;;;17.10;14.52;;;29.60;62.80;;;;;;4955997;28;20138;-75
2023/09/08 10:33:56;;;;;;;21.98;15.98;;;29.70;62.40;;;;;;4959186;28;20035;-78
2023/09/08 10:36:24;;;;;;;19.35;16.08;;;29.80;62.00;;;;;;4998623;28;20024;-73
2023/09/08 10:38:51;;;;;;;19.80;14.35;;;30.10;60.40;;;;;;4996640;28;20112;-74
2023/09/08 10:41:17;;;;;;;20.08;13.82;;;30.20;60.70;;;;;;4979964;28;20023;-74
2023/09/08 10:43:54;;;;;;;20.13;12.70;;;29.90;60.80;;;;;;4966008;28;20115;-75
2023/09/08 10:46:25;;;;;;;15.15;12.18;;;29.70;61.50;;;;;;4959575;28;20039;-75
2023/09/08 10:48:54;;;;;;;21.25;12.90;;;29.80;60.10;;;;;;4946606;28;20656;-74
2023/09/08 10:51:22;;;;;;;15.15;11.15;;;30.10;60.50;;;;;;4935771;28;20027;-73
2023/09/08 10:53:49;;;;;;;13.77;12.07;;;30.20;60.80;;;;;;4943260;28;20035;-76
2023/09/08 10:56:15;;;;;;;15.38;13.40;;;30.40;58.60;;;;;;4982183;28;20497;-74
2023/09/08 10:58:42;;;;;;;15.23;12.73;;;30.30;59.30;;;;;;4937745;28;20028;-74
2023/09/08 11:01:13;;;;;;;18.35;11.95;;;30.00;59.90;;;;;;4936321;28;20031;-76
2023/09/08 11:03:38;;;;;;;17.20;13.55;;;30.20;58.70;;;;;;4932292;28;20346;-75
2023/09/08 11:06:08;;;;;;;16.98;12.77;;;30.30;59.10;;;;;;4936414;28;20032;-76
2023/09/08 11:08:36;;;;;;;17.75;12.75;;;30.10;59.00;;;;;;4938317;28;20031;-76
2023/09/08 11:11:02;;;;;;;13.52;10.55;;;30.40;59.30;;;;;;4944073;28;20046;-75
2023/09/08 11:13:28;;;;;;;17.48;12.88;;;30.50;58.70;;;;;;4939884;28;20074;-74
2023/09/08 11:15:55;;;;;;;13.85;10.70;;;30.80;58.60;;;;;;4935015;28;20051;-76
2023/09/08 11:18:31;;;;;;;13.40;10.75;;;31.00;57.70;;;;;;4944735;28;20486;-75
2023/09/08 11:20:58;;;;;;;13.98;9.52;;;31.00;56.60;;;;;;4942380;28;20391;-73
2023/09/08 11:23:24;;;;;;;11.57;8.52;;;31.00;55.90;;;;;;4940529;28;20039;-75
2023/09/08 11:25:51;;;;;;;11.13;8.10;;;31.00;55.70;;;;;;4955191;28;20035;-75
2023/09/08 11:28:17;;;;;;;12.65;8.07;;;31.10;54.60;;;;;;4936486;28;20048;-73
2023/09/08 11:30:46;;;;;;;10.57;6.60;;;31.30;53.70;;;;;;4945999;28;20031;-77
2023/09/08 11:33:25;;;;;;;10.50;5.70;;;31.30;54.00;;;;;;4943151;28;20043;-75
2023/09/08 11:35:54;;;;;;;9.32;5.40;;;31.20;51.40;;;;;;4927988;28;20062;-77
2023/09/08 11:38:27;;;;;;;11.30;6.15;;;31.20;52.60;;;;;;4943545;28;20031;-74
2023/09/08 11:40:54;;;;;;;10.05;5.82;;;31.20;51.50;;;;;;4944014;28;20401;-74
2023/09/08 11:43:20;;;;;;;14.40;7.50;;;31.10;52.60;;;;;;4963905;28;20399;-76
2023/09/08 11:45:46;;;;;;;10.93;6.68;;;30.90;52.60;;;;;;4945018;28;20466;-76
2023/09/08 11:48:14;;;;;;;12.27;6.00;;;31.00;52.50;;;;;;4941833;28;20046;-74
2023/09/08 11:50:41;;;;;;;12.20;5.97;;;31.10;51.90;;;;;;4949747;28;20131;-76
2023/09/08 11:53:07;;;;;;;13.35;5.63;;;31.00;50.90;;;;;;4946484;28;20677;-75
2023/09/08 11:55:33;;;;;;;12.00;6.20;;;31.10;52.60;;;;;;4943291;28;20070;-76
2023/09/08 11:58:02;;;;;;;9.82;6.00;;;31.20;51.50;;;;;;4943098;28;20469;-76
2023/09/08 12:00:28;;;;;;;11.18;5.65;;;31.20;51.50;;;;;;4942338;28;20031;-75
2023/09/08 12:02:55;;;;;;;11.55;5.50;;;31.50;50.90;;;;;;4943840;28;20833;-75
2023/09/08 12:05:26;;;;;;;11.52;5.40;;;31.40;50.10;;;;;;4939251;28;20042;-75
2023/09/08 12:07:56;;;;;;;9.20;5.00;;;31.20;50.60;;;;;;4938302;28;20039;-75
2023/09/08 12:10:22;;;;;;;8.70;5.03;;;31.40;50.50;;;;;;4956776;28;20032;-75
2023/09/08 12:12:54;;;;;;;11.43;5.65;;;31.20;49.40;;;;;;4951752;28;20509;-74
2023/09/08 12:15:49;;;;;;;9.25;4.88;;;31.30;48.80;;;;;;4943729;28;20097;-75
2023/09/08 12:18:15;;;;;;;8.25;4.80;;;31.60;50.10;;;;;;4940208;28;20043;-74
2023/09/08 12:20:41;;;;;;;10.27;4.70;;;31.50;50.70;;;;;;4954524;28;20034;-75
2023/09/08 12:23:22;;;;;;;9.30;4.60;;;31.40;48.30;;;;;;4941532;28;20386;-76
2023/09/08 12:25:56;;;;;;;9.15;5.40;;;31.30;48.60;;;;;;4938693;28;20054;-74
2023/09/08 12:28:22;;;;;;;8.32;4.57;;;31.00;48.20;;;;;;4951539;28;20138;-74